Time;durP1;ratioP1;P1;durP2;ratioP2;P2;SDS_P1;SDS_P2;PMS_P1;PMS_P2;Temp;Humidity;BMP_temperature;BMP_pressure;BME280_temperature;BME280_humidity;BME280_pressure;Samples;Min_cycle;Max_cycle;Signal;HPM_P1;HPM_P2
2021/07/16 00:00:25;;;;;;;3.20;1.27;;;15.70;99.90;;;;;;5040514;28;20441;-67
2021/07/16 00:02:52;;;;;;;3.73;2.10;;;15.60;99.90;;;;;;5055293;28;20440;-67
2021/07/16 00:05:24;;;;;;;3.83;1.30;;;15.60;99.90;;;;;;5035436;28;20481;-67
2021/07/16 00:07:52;;;;;;;4.00;1.40;;;15.60;99.90;;;;;;5035253;28;20483;-67
2021/07/16 00:10:21;;;;;;;1.90;0.97;;;15.70;99.90;;;;;;5053190;28;20781;-67
2021/07/16 00:12:49;;;;;;;3.10;1.10;;;15.70;99.90;;;;;;5054851;28;20505;-67
2021/07/16 00:15:22;;;;;;;2.80;1.30;;;15.70;99.90;;;;;;5037291;28;20446;-67
2021/07/16 00:17:51;;;;;;;2.07;0.90;;;15.80;99.90;;;;;;5035099;28;20527;-68
2021/07/16 00:20:22;;;;;;;2.07;1.27;;;15.80;99.90;;;;;;5054408;28;20923;-68
2021/07/16 00:22:49;;;;;;;4.27;1.30;;;15.80;99.90;;;;;;5054477;28;20904;-68
2021/07/16 00:25:20;;;;;;;1.70;0.90;;;15.70;99.90;;;;;;5034782;28;20485;-67
2021/07/16 00:27:47;;;;;;;4.23;1.50;;;15.70;99.90;;;;;;5035025;28;20438;-67
2021/07/16 00:30:16;;;;;;;2.30;1.20;;;15.70;99.90;;;;;;5053562;28;20506;-67
2021/07/16 00:32:43;;;;;;;2.20;1.37;;;15.70;99.90;;;;;;5047854;28;20470;-67
2021/07/16 00:35:13;;;;;;;3.50;1.10;;;15.70;99.90;;;;;;5034758;28;20440;-67
2021/07/16 00:37:40;;;;;;;2.67;1.70;;;15.70;99.90;;;;;;5040028;28;20950;-67
2021/07/16 00:40:10;;;;;;;3.00;1.40;;;15.70;99.90;;;;;;5054649;28;20441;-66
2021/07/16 00:42:38;;;;;;;3.17;1.40;;;15.70;99.90;;;;;;5049621;28;20474;-67
2021/07/16 00:45:14;;;;;;;3.40;1.20;;;15.60;99.90;;;;;;5034402;28;20535;-67
2021/07/16 00:47:43;;;;;;;2.57;1.20;;;15.70;99.90;;;;;;5034907;28;20955;-67
2021/07/16 00:50:15;;;;;;;2.80;1.17;;;15.60;99.90;;;;;;5034481;28;20433;-67
2021/07/16 00:52:44;;;;;;;6.43;1.50;;;15.60;99.90;;;;;;5038701;28;20433;-67
2021/07/16 00:55:14;;;;;;;2.90;1.40;;;15.60;99.90;;;;;;5054444;28;20441;-67
2021/07/16 00:57:41;;;;;;;2.00;1.40;;;15.60;99.90;;;;;;5050091;28;20521;-68
2021/07/16 01:00:10;;;;;;;2.87;1.13;;;15.50;99.90;;;;;;5034242;28;20970;-67
2021/07/16 01:02:41;;;;;;;4.70;1.30;;;15.60;99.90;;;;;;5035272;28;20438;-67
2021/07/16 01:05:14;;;;;;;2.50;1.03;;;15.60;99.90;;;;;;5034105;28;20488;-67
2021/07/16 01:07:43;;;;;;;2.53;1.33;;;15.50;99.90;;;;;;5036321;28;21394;-67
2021/07/16 01:10:12;;;;;;;2.17;1.10;;;15.50;99.90;;;;;;5054126;28;20759;-66
2021/07/16 01:12:40;;;;;;;2.17;1.13;;;15.40;99.90;;;;;;5051561;28;20440;-66
2021/07/16 01:15:09;;;;;;;2.40;1.17;;;15.40;99.90;;;;;;5034128;28;20839;-67
2021/07/16 01:17:37;;;;;;;3.73;0.97;;;15.40;99.90;;;;;;5034127;28;20948;-67
2021/07/16 01:20:08;;;;;;;1.67;0.80;;;15.40;99.90;;;;;;5053902;28;20498;-67
2021/07/16 01:22:41;;;;;;;4.70;0.97;;;15.40;99.90;;;;;;5053221;28;20985;-68
2021/07/16 01:25:12;;;;;;;2.10;0.90;;;15.40;99.90;;;;;;5053723;28;20484;-67
2021/07/16 01:27:41;;;;;;;1.63;1.00;;;15.30;99.90;;;;;;5053220;28;20498;-67
2021/07/16 01:30:13;;;;;;;1.73;0.80;;;15.30;99.90;;;;;;5033721;28;20445;-68
2021/07/16 01:32:40;;;;;;;5.20;0.80;;;15.30;99.90;;;;;;5033513;28;21018;-67
2021/07/16 01:35:09;;;;;;;2.60;0.93;;;15.30;99.90;;;;;;5033431;28;20449;-67
2021/07/16 01:37:36;;;;;;;2.83;0.83;;;15.20;99.90;;;;;;5033898;28;20469;-67
2021/07/16 01:40:05;;;;;;;1.70;0.80;;;15.20;99.90;;;;;;5052105;28;20441;-67
2021/07/16 01:42:37;;;;;;;2.90;1.37;;;15.20;99.90;;;;;;5053229;28;20514;-67
2021/07/16 01:45:05;;;;;;;2.33;1.00;;;15.10;99.90;;;;;;5034458;28;20527;-68
2021/07/16 01:47:34;;;;;;;4.17;1.10;;;15.10;99.90;;;;;;5033263;28;20452;-67
2021/07/16 01:50:03;;;;;;;1.90;1.50;;;15.10;99.90;;;;;;5050266;28;20443;-67
2021/07/16 01:52:31;;;;;;;2.17;1.57;;;15.10;99.90;;;;;;5053265;28;20444;-67
2021/07/16 01:54:58;;;;;;;3.43;1.17;;;15.10;99.90;;;;;;5036302;28;20445;-67
2021/07/16 01:57:25;;;;;;;1.70;1.13;;;15.10;99.90;;;;;;5033260;28;20453;-67
2021/07/16 01:59:53;;;;;;;2.13;1.33;;;15.00;99.90;;;;;;5047848;28;20773;-67
2021/07/16 02:02:20;;;;;;;3.53;1.10;;;15.00;99.90;;;;;;5052975;28;20440;-67
2021/07/16 02:04:47;;;;;;;2.27;0.93;;;15.00;99.90;;;;;;5038884;28;20496;-67
2021/07/16 02:07:14;;;;;;;5.67;0.93;;;15.10;99.90;;;;;;5033196;28;20839;-67
2021/07/16 02:09:41;;;;;;;1.60;0.80;;;15.10;99.90;;;;;;5045148;28;20441;-67
2021/07/16 02:12:09;;;;;;;1.53;0.80;;;15.10;99.90;;;;;;5053053;28;20440;-67
2021/07/16 02:14:40;;;;;;;2.20;0.90;;;15.10;99.90;;;;;;5041310;28;20507;-68
2021/07/16 02:17:08;;;;;;;2.03;1.20;;;15.10;99.90;;;;;;5038451;28;20491;-67
2021/07/16 02:19:40;;;;;;;2.43;1.10;;;15.20;99.90;;;;;;5052971;28;20506;-67
2021/07/16 02:22:10;;;;;;;3.30;0.90;;;15.20;99.90;;;;;;5046770;28;20917;-66
2021/07/16 02:24:37;;;;;;;2.57;1.00;;;15.20;99.90;;;;;;5031719;28;20497;-66
2021/07/16 02:27:05;;;;;;;4.43;1.00;;;15.20;99.90;;;;;;5036636;28;20436;-67
2021/07/16 02:29:34;;;;;;;1.87;0.93;;;15.20;99.90;;;;;;5052500;28;20530;-67
2021/07/16 02:32:01;;;;;;;3.33;1.10;;;15.20;99.90;;;;;;5038018;28;20537;-67
2021/07/16 02:34:30;;;;;;;2.37;1.20;;;15.10;99.90;;;;;;5032676;28;20438;-66
2021/07/16 02:36:57;;;;;;;1.77;0.97;;;15.10;99.90;;;;;;5045226;28;20441;-67
2021/07/16 02:39:26;;;;;;;2.37;1.17;;;15.10;99.90;;;;;;5052431;28;20923;-67
2021/07/16 02:41:53;;;;;;;5.83;1.10;;;15.10;99.90;;;;;;5040032;28;20672;-66
2021/07/16 02:44:20;;;;;;;1.63;0.90;;;15.10;99.90;;;;;;5032568;28;20448;-66
2021/07/16 02:46:52;;;;;;;1.77;0.90;;;15.10;99.90;;;;;;5031898;28;20531;-67
2021/07/16 02:49:21;;;;;;;1.77;0.90;;;15.10;99.90;;;;;;5032381;28;20449;-68
2021/07/16 02:51:49;;;;;;;2.70;1.10;;;15.10;99.90;;;;;;5042107;28;20464;-67
2021/07/16 02:54:17;;;;;;;2.03;0.80;;;15.10;99.90;;;;;;5032465;28;20434;-67
2021/07/16 02:56:45;;;;;;;2.10;1.00;;;15.00;99.90;;;;;;5031823;28;20430;-67
2021/07/16 02:59:12;;;;;;;2.20;0.80;;;15.00;99.90;;;;;;5032515;28;20429;-69
2021/07/16 03:01:54;;;;;;;3.57;1.53;;;15.00;99.90;;;;;;5040099;28;20433;-66
2021/07/16 03:04:21;;;;;;;3.47;1.20;;;15.00;99.90;;;;;;5052391;28;20438;-66
2021/07/16 03:06:54;;;;;;;3.10;1.30;;;15.10;99.90;;;;;;5043331;28;20536;-67
2021/07/16 03:09:22;;;;;;;2.90;1.60;;;15.00;99.90;;;;;;5032324;28;20441;-67
2021/07/16 03:11:49;;;;;;;1.80;1.00;;;15.00;99.90;;;;;;5040089;28;20854;-67
2021/07/16 03:14:16;;;;;;;2.37;0.90;;;14.90;99.90;;;;;;5051962;28;20433;-67
2021/07/16 03:16:44;;;;;;;3.03;1.00;;;14.90;99.90;;;;;;5044912;28;20904;-67
2021/07/16 03:19:16;;;;;;;3.10;0.80;;;14.90;99.90;;;;;;5032133;28;20564;-66
2021/07/16 03:21:43;;;;;;;2.50;0.93;;;15.00;99.90;;;;;;5038198;28;20476;-67
2021/07/16 03:24:12;;;;;;;1.60;0.77;;;15.00;99.90;;;;;;5052044;28;20436;-66
2021/07/16 03:26:44;;;;;;;1.67;0.70;;;14.80;99.90;;;;;;5046264;28;20481;-67
2021/07/16 03:29:14;;;;;;;3.47;0.70;;;14.80;99.90;;;;;;5032248;28;20468;-70
2021/07/16 03:31:42;;;;;;;1.90;1.00;;;14.70;99.90;;;;;;5036786;28;20524;-66
2021/07/16 03:34:12;;;;;;;4.23;1.10;;;14.80;99.90;;;;;;5052081;28;20432;-67
2021/07/16 03:36:39;;;;;;;2.47;0.70;;;14.70;99.90;;;;;;5051289;28;20425;-66
2021/07/16 03:39:11;;;;;;;1.50;0.60;;;14.70;99.90;;;;;;5035824;28;20429;-67
2021/07/16 03:41:38;;;;;;;1.70;0.60;;;14.70;99.90;;;;;;5038758;28;20432;-67
2021/07/16 03:44:05;;;;;;;5.47;1.60;;;14.70;99.90;;;;;;5055743;28;20443;-66
2021/07/16 03:46:33;;;;;;;2.00;0.90;;;14.80;99.90;;;;;;5053149;28;20477;-66
2021/07/16 03:49:00;;;;;;;1.60;0.70;;;14.70;99.90;;;;;;5055563;28;20444;-66
2021/07/16 03:51:28;;;;;;;1.50;0.70;;;14.80;99.90;;;;;;5047537;28;20442;-67
2021/07/16 03:53:55;;;;;;;3.00;1.03;;;14.80;99.90;;;;;;5035585;28;20473;-66
2021/07/16 03:56:23;;;;;;;2.00;1.03;;;14.80;99.90;;;;;;5041316;28;20935;-67
2021/07/16 03:58:56;;;;;;;2.20;0.90;;;14.60;99.90;;;;;;5055514;28;20441;-67
2021/07/16 04:01:23;;;;;;;1.60;0.90;;;14.60;99.90;;;;;;5049160;28;20500;-67
2021/07/16 04:03:50;;;;;;;4.20;0.90;;;14.60;99.90;;;;;;5035484;28;20438;-67
2021/07/16 04:06:19;;;;;;;3.00;0.90;;;14.60;99.90;;;;;;5039574;28;20484;-67
2021/07/16 04:08:45;;;;;;;1.90;0.73;;;14.60;99.90;;;;;;5051421;28;20492;-67
2021/07/16 04:11:12;;;;;;;1.93;0.77;;;14.60;99.90;;;;;;5035775;28;20474;-69
2021/07/16 04:13:40;;;;;;;1.70;0.90;;;14.70;99.90;;;;;;5035601;28;20537;-66
2021/07/16 04:16:07;;;;;;;1.63;0.60;;;14.80;99.90;;;;;;5035640;28;20473;-66
2021/07/16 04:18:34;;;;;;;1.60;0.70;;;14.90;99.90;;;;;;5035130;28;20501;-67
2021/07/16 04:21:01;;;;;;;2.17;0.87;;;14.90;99.90;;;;;;5035535;28;20865;-66
2021/07/16 04:23:29;;;;;;;3.10;0.80;;;14.90;99.90;;;;;;5035264;28;20467;-67
2021/07/16 04:25:56;;;;;;;1.53;0.70;;;14.90;99.90;;;;;;5035487;28;20564;-67
2021/07/16 04:28:23;;;;;;;1.80;0.80;;;14.90;99.70;;;;;;5035105;28;20465;-67
2021/07/16 04:30:54;;;;;;;2.23;0.60;;;14.90;99.80;;;;;;5035442;28;20484;-67
2021/07/16 04:33:21;;;;;;;2.90;0.93;;;14.90;99.90;;;;;;5034818;28;20533;-67
2021/07/16 04:35:48;;;;;;;1.70;0.70;;;15.00;99.90;;;;;;5035474;28;20473;-67
2021/07/16 04:38:18;;;;;;;1.70;0.70;;;15.00;99.90;;;;;;5035169;28;20541;-67
2021/07/16 04:40:45;;;;;;;1.50;0.70;;;15.10;99.90;;;;;;5035579;28;20860;-67
2021/07/16 04:43:12;;;;;;;2.10;0.80;;;15.10;99.90;;;;;;5052804;28;21026;-69
2021/07/16 04:45:39;;;;;;;1.90;0.80;;;15.10;99.90;;;;;;5055209;28;20903;-66
2021/07/16 04:48:08;;;;;;;3.83;0.70;;;15.10;99.90;;;;;;5054018;28;20794;-67
2021/07/16 04:50:37;;;;;;;2.07;0.83;;;15.20;99.90;;;;;;5055099;28;20520;-67
2021/07/16 04:53:04;;;;;;;1.50;0.60;;;15.20;99.90;;;;;;5054277;28;20452;-67
2021/07/16 04:55:33;;;;;;;1.93;0.67;;;15.30;99.90;;;;;;5055102;28;20532;-67
2021/07/16 04:58:00;;;;;;;1.53;0.80;;;15.30;99.90;;;;;;5054266;28;20479;-66
2021/07/16 05:00:28;;;;;;;2.20;0.90;;;15.40;99.80;;;;;;5054952;28;20912;-67
2021/07/16 05:03:01;;;;;;;1.83;0.70;;;15.30;99.80;;;;;;5054312;28;20515;-66
2021/07/16 05:05:30;;;;;;;1.90;0.90;;;15.40;99.80;;;;;;5054708;28;20441;-67
2021/07/16 05:07:57;;;;;;;2.33;0.70;;;15.40;99.90;;;;;;5053477;28;20529;-67
2021/07/16 05:10:24;;;;;;;1.50;0.77;;;15.50;99.90;;;;;;5054835;28;20899;-67
2021/07/16 05:12:55;;;;;;;2.00;1.03;;;15.50;99.90;;;;;;5051361;28;20528;-67
2021/07/16 05:15:22;;;;;;;1.97;0.70;;;15.60;99.90;;;;;;5054708;28;20440;-67
2021/07/16 05:17:49;;;;;;;1.77;0.97;;;15.60;99.00;;;;;;5053483;28;20496;-67
2021/07/16 05:20:16;;;;;;;1.80;0.80;;;15.50;98.70;;;;;;5054333;28;20472;-67
2021/07/16 05:22:44;;;;;;;1.50;0.80;;;15.60;98.80;;;;;;5053794;28;20499;-67
2021/07/16 05:25:12;;;;;;;2.00;0.87;;;15.60;99.00;;;;;;5054263;28;20528;-68
2021/07/16 05:27:39;;;;;;;3.17;1.40;;;15.70;99.20;;;;;;5051482;28;21025;-67
2021/07/16 05:30:07;;;;;;;4.03;1.13;;;15.70;99.10;;;;;;5054220;28;20425;-68
2021/07/16 05:32:46;;;;;;;1.53;0.73;;;15.80;98.90;;;;;;5034207;28;21054;-67
2021/07/16 05:35:15;;;;;;;2.00;0.67;;;15.80;98.50;;;;;;5034380;28;20477;-66
2021/07/16 05:37:46;;;;;;;1.77;0.80;;;15.90;98.30;;;;;;5034112;28;20472;-67
2021/07/16 05:40:14;;;;;;;1.70;0.80;;;15.90;98.20;;;;;;5034475;28;20473;-67
2021/07/16 05:42:44;;;;;;;2.90;0.70;;;15.90;98.30;;;;;;5033862;28;20477;-67
2021/07/16 05:45:14;;;;;;;1.70;0.73;;;16.00;98.20;;;;;;5034022;28;20516;-67
2021/07/16 05:47:41;;;;;;;2.00;1.10;;;16.10;98.50;;;;;;5033762;28;20478;-67
2021/07/16 05:50:09;;;;;;;2.00;0.93;;;16.10;98.60;;;;;;5033916;28;20489;-67
2021/07/16 05:52:36;;;;;;;5.10;1.20;;;16.20;98.20;;;;;;5049970;28;20498;-68
2021/07/16 05:55:06;;;;;;;1.90;0.90;;;16.20;98.00;;;;;;5043447;28;20434;-66
2021/07/16 05:57:40;;;;;;;2.80;0.90;;;16.30;97.30;;;;;;5038012;28;20968;-67
2021/07/16 06:00:09;;;;;;;1.50;0.60;;;16.30;97.40;;;;;;5053718;28;20431;-67
2021/07/16 06:02:41;;;;;;;1.70;0.73;;;16.40;97.00;;;;;;5048359;28;20470;-67
2021/07/16 06:05:08;;;;;;;1.50;0.73;;;16.40;96.90;;;;;;5033882;28;20481;-66
2021/07/16 06:07:36;;;;;;;9.33;1.67;;;16.40;96.90;;;;;;5037145;28;20563;-67
2021/07/16 06:10:05;;;;;;;1.77;0.80;;;16.50;95.80;;;;;;5045245;28;20441;-67
2021/07/16 06:12:35;;;;;;;1.90;1.17;;;16.40;96.10;;;;;;5046358;28;20461;-68
2021/07/16 06:15:05;;;;;;;2.13;0.80;;;16.40;96.40;;;;;;5032717;28;20470;-66
2021/07/16 06:17:33;;;;;;;1.60;1.10;;;16.40;96.40;;;;;;5034077;28;21043;-67
2021/07/16 06:20:00;;;;;;;1.83;1.03;;;16.50;96.60;;;;;;5050460;28;20441;-69
2021/07/16 06:22:27;;;;;;;2.33;0.80;;;16.60;96.70;;;;;;5033361;28;20481;-67
2021/07/16 06:24:54;;;;;;;1.90;0.93;;;16.70;96.70;;;;;;5043006;28;20470;-69
2021/07/16 06:27:22;;;;;;;2.10;1.20;;;16.80;96.80;;;;;;5047715;28;20504;-67
2021/07/16 06:29:49;;;;;;;2.97;1.63;;;16.90;96.80;;;;;;5050102;28;20444;-68
2021/07/16 06:32:16;;;;;;;2.33;1.10;;;17.00;96.90;;;;;;5049323;28;20464;-67
2021/07/16 06:34:47;;;;;;;2.60;1.03;;;17.00;97.00;;;;;;5038080;28;20461;-67
2021/07/16 06:37:14;;;;;;;3.33;1.00;;;17.00;96.50;;;;;;5032759;28;20434;-68
2021/07/16 06:39:42;;;;;;;1.80;1.03;;;17.10;95.90;;;;;;5032201;28;20916;-68
2021/07/16 06:42:09;;;;;;;4.13;1.10;;;17.20;95.90;;;;;;5031929;28;20496;-68
2021/07/16 06:44:37;;;;;;;1.77;0.80;;;17.30;96.00;;;;;;5032692;28;20925;-67
2021/07/16 06:47:04;;;;;;;4.40;0.93;;;17.50;96.50;;;;;;5036950;28;20531;-67
2021/07/16 06:49:31;;;;;;;4.50;0.90;;;17.60;96.20;;;;;;5035178;28;20858;-67
2021/07/16 06:52:00;;;;;;;6.27;0.73;;;17.80;95.60;;;;;;5032016;28;20491;-67
2021/07/16 06:54:27;;;;;;;2.70;0.70;;;17.90;95.20;;;;;;5032931;28;20441;-66
2021/07/16 06:56:55;;;;;;;3.10;0.90;;;17.90;95.30;;;;;;5032107;28;20442;-67
2021/07/16 06:59:33;;;;;;;4.83;2.70;;;18.00;94.70;;;;;;5045881;28;20490;-67
2021/07/16 07:02:01;;;;;;;7.20;2.93;;;18.10;93.50;;;;;;5050464;28;20433;-67
2021/07/16 07:04:29;;;;;;;2.53;1.17;;;18.20;94.30;;;;;;5046453;28;20441;-68
2021/07/16 07:07:01;;;;;;;2.07;0.90;;;18.30;94.50;;;;;;5031882;28;20492;-67
2021/07/16 07:09:28;;;;;;;1.50;0.60;;;18.40;94.40;;;;;;5032425;28;20434;-67
2021/07/16 07:11:55;;;;;;;1.63;0.70;;;18.60;94.10;;;;;;5036058;28;20507;-68
2021/07/16 07:14:22;;;;;;;1.70;0.73;;;18.70;93.30;;;;;;5036312;28;20967;-67
2021/07/16 07:17:03;;;;;;;2.10;0.77;;;18.80;93.80;;;;;;5036487;28;20444;-68
2021/07/16 07:19:30;;;;;;;1.67;0.83;;;19.00;93.80;;;;;;5049187;28;20518;-66
2021/07/16 07:22:04;;;;;;;1.50;0.50;;;19.20;92.80;;;;;;5053584;28;20432;-67
2021/07/16 07:24:31;;;;;;;1.50;0.73;;;19.30;92.40;;;;;;5053534;28;20490;-67
2021/07/16 07:26:59;;;;;;;1.60;0.70;;;19.40;91.90;;;;;;5038587;28;20480;-66
2021/07/16 07:29:26;;;;;;;3.03;0.90;;;19.50;91.80;;;;;;5036441;28;20945;-67
2021/07/16 07:31:54;;;;;;;1.60;0.70;;;19.60;90.80;;;;;;5035775;28;20446;-67
2021/07/16 07:34:25;;;;;;;3.00;0.70;;;19.80;90.60;;;;;;5042829;28;20439;-67
2021/07/16 07:39:37;;;;;;;1.50;0.50;;;20.20;90.50;;;;;;5035741;28;20421;-66
2021/07/16 07:42:04;;;;;;;2.30;0.60;;;20.30;90.10;;;;;;5039147;28;20436;-68
2021/07/16 07:44:31;;;;;;;3.53;0.90;;;20.50;88.70;;;;;;5038614;28;20450;-67
2021/07/16 07:47:06;;;;;;;1.70;0.60;;;20.50;87.20;;;;;;5036815;28;20586;-67
2021/07/16 07:49:35;;;;;;;1.50;0.50;;;20.70;88.10;;;;;;5050680;28;20501;-67
2021/07/16 07:52:07;;;;;;;2.17;0.50;;;20.80;86.90;;;;;;5046440;28;20445;-67
2021/07/16 07:54:34;;;;;;;1.60;0.60;;;21.10;87.40;;;;;;5052055;28;20453;-68
2021/07/16 07:57:01;;;;;;;2.20;0.67;;;21.30;85.90;;;;;;5043081;28;20442;-67
2021/07/16 07:59:28;;;;;;;1.90;0.63;;;21.50;83.70;;;;;;5038027;28;20558;-67
2021/07/16 08:01:55;;;;;;;4.37;0.70;;;21.70;86.90;;;;;;5052542;28;20506;-67
2021/07/16 08:04:22;;;;;;;2.17;0.70;;;22.00;85.70;;;;;;5039475;28;20437;-67
2021/07/16 08:06:54;;;;;;;1.80;0.60;;;22.20;81.90;;;;;;5034946;28;21011;-68
2021/07/16 08:09:21;;;;;;;1.57;0.63;;;22.40;84.80;;;;;;5037384;28;20434;-68
2021/07/16 08:11:48;;;;;;;2.70;0.80;;;22.60;83.20;;;;;;5034804;28;20446;-68
2021/07/16 08:14:15;;;;;;;3.10;0.70;;;22.70;85.20;;;;;;5037341;28;20438;-67
2021/07/16 08:16:46;;;;;;;2.23;0.80;;;22.80;84.30;;;;;;5035281;28;20513;-67
2021/07/16 08:19:17;;;;;;;1.70;0.87;;;22.90;82.70;;;;;;5035138;28;20458;-67
2021/07/16 08:21:46;;;;;;;1.70;0.70;;;23.10;82.30;;;;;;5035161;28;20439;-71
2021/07/16 08:24:15;;;;;;;1.83;0.97;;;23.20;80.90;;;;;;5037405;28;20803;-67
2021/07/16 08:26:43;;;;;;;2.87;0.80;;;23.30;82.80;;;;;;5044893;28;20477;-68
2021/07/16 08:29:10;;;;;;;2.07;1.03;;;23.40;81.30;;;;;;5054382;28;20440;-67
2021/07/16 08:31:38;;;;;;;2.30;1.30;;;23.50;81.30;;;;;;5045683;28;20511;-66
2021/07/16 08:34:05;;;;;;;2.87;1.93;;;23.60;79.80;;;;;;5035734;28;20445;-67
2021/07/16 08:36:32;;;;;;;3.43;0.90;;;23.80;79.30;;;;;;5045568;28;20484;-67
2021/07/16 08:39:00;;;;;;;3.17;1.20;;;23.90;78.60;;;;;;5054770;28;20433;-67
2021/07/16 08:41:28;;;;;;;3.20;1.00;;;23.90;75.10;;;;;;5044391;28;20496;-67
2021/07/16 08:43:55;;;;;;;2.83;1.30;;;23.90;75.10;;;;;;5034531;28;20503;-67
2021/07/16 08:46:22;;;;;;;2.63;0.83;;;23.90;76.50;;;;;;5045152;28;20460;-68
2021/07/16 08:48:49;;;;;;;3.10;1.23;;;23.90;77.30;;;;;;5034724;28;21054;-67
2021/07/16 08:51:18;;;;;;;2.20;1.27;;;24.10;75.80;;;;;;5037684;28;20484;-67
2021/07/16 08:53:47;;;;;;;3.10;0.83;;;24.00;72.30;;;;;;5046039;28;20437;-67
2021/07/16 08:56:15;;;;;;;1.77;0.97;;;23.90;72.30;;;;;;5035501;28;20442;-67
2021/07/16 08:58:43;;;;;;;1.77;0.97;;;23.80;73.70;;;;;;5047834;28;20441;-67
2021/07/16 09:01:11;;;;;;;2.90;1.00;;;23.90;75.20;;;;;;5042979;28;20484;-67
2021/07/16 09:03:55;;;;;;;5.43;1.20;;;23.90;76.40;;;;;;5037368;28;20815;-67
2021/07/16 09:06:52;;;;;;;2.00;0.93;;;23.90;73.80;;;;;;5041771;28;20496;-67
2021/07/16 09:09:21;;;;;;;1.60;0.80;;;24.00;75.60;;;;;;5052382;28;20461;-68
2021/07/16 09:11:51;;;;;;;2.80;0.80;;;24.20;74.90;;;;;;5038904;28;21019;-69
2021/07/16 09:14:23;;;;;;;2.50;1.30;;;24.30;72.80;;;;;;5042610;28;20505;-67
2021/07/16 09:16:58;;;;;;;1.80;1.00;;;24.50;74.30;;;;;;5034205;28;20527;-68
2021/07/16 09:19:30;;;;;;;2.60;0.73;;;24.70;75.70;;;;;;5037793;28;20462;-67
2021/07/16 09:22:19;;;;;;;3.10;1.00;;;24.90;72.30;;;;;;5053854;28;20500;-67
2021/07/16 09:24:52;;;;;;;3.03;1.20;;;25.10;74.60;;;;;;5046757;28;20475;-68
2021/07/16 09:27:36;;;;;;;2.43;1.10;;;25.20;72.60;;;;;;5040248;28;20477;-68
2021/07/16 09:30:21;;;;;;;2.73;1.00;;;25.30;70.20;;;;;;5033972;28;20437;-67
2021/07/16 09:32:51;;;;;;;1.90;1.00;;;25.20;68.50;;;;;;5037579;28;20508;-68
2021/07/16 09:35:22;;;;;;;2.03;0.97;;;25.20;68.40;;;;;;5049217;28;20457;-67
2021/07/16 09:37:55;;;;;;;2.17;1.10;;;25.20;68.60;;;;;;5033471;28;20438;-67
2021/07/16 09:40:24;;;;;;;1.63;0.77;;;25.30;68.60;;;;;;5040740;28;20519;-68
2021/07/16 09:43:01;;;;;;;1.90;0.90;;;25.40;67.60;;;;;;5053490;28;20959;-68
2021/07/16 09:45:35;;;;;;;3.23;1.30;;;25.50;68.50;;;;;;5040918;28;20464;-67
2021/07/16 09:48:22;;;;;;;1.77;0.70;;;25.70;66.80;;;;;;5042713;28;20477;-68
2021/07/16 09:50:51;;;;;;;1.60;0.60;;;25.80;61.50;;;;;;5053354;28;20436;-68
2021/07/16 09:53:26;;;;;;;1.50;0.60;;;25.80;59.70;;;;;;5041761;28;20512;-68
2021/07/16 09:56:10;;;;;;;1.60;0.70;;;25.90;63.30;;;;;;5033080;28;20471;-69
2021/07/16 09:58:39;;;;;;;1.60;0.70;;;26.00;63.00;;;;;;5033279;28;20781;-67
2021/07/16 10:01:09;;;;;;;1.70;0.77;;;26.00;62.30;;;;;;5032678;28;20967;-68
2021/07/16 10:03:38;;;;;;;1.70;0.70;;;26.00;61.50;;;;;;5032622;28;20500;-68
2021/07/16 10:06:06;;;;;;;1.60;0.70;;;26.00;60.30;;;;;;5034558;28;20441;-68
2021/07/16 10:08:35;;;;;;;1.57;0.60;;;26.10;61.20;;;;;;5052504;28;20509;-68
2021/07/16 10:11:06;;;;;;;1.80;0.70;;;26.30;60.60;;;;;;5052342;28;20445;-68
2021/07/16 10:13:34;;;;;;;1.73;0.67;;;26.50;59.10;;;;;;5052472;28;20484;-68
2021/07/16 10:16:02;;;;;;;1.60;0.70;;;26.80;58.30;;;;;;5047164;28;20442;-68
2021/07/16 10:18:31;;;;;;;1.77;0.60;;;27.00;58.60;;;;;;5032589;28;20461;-67
2021/07/16 10:20:58;;;;;;;2.90;0.80;;;27.20;57.80;;;;;;5035997;28;20434;-68
2021/07/16 10:23:26;;;;;;;1.50;0.70;;;27.30;58.00;;;;;;5042667;28;20443;-70
2021/07/16 10:25:54;;;;;;;1.63;0.70;;;27.50;57.80;;;;;;5033526;28;20441;-68
2021/07/16 10:28:40;;;;;;;1.50;0.60;;;27.70;56.10;;;;;;5032611;28;20489;-68
2021/07/16 10:31:33;;;;;;;2.10;0.70;;;28.00;55.20;;;;;;5032694;28;20533;-68
2021/07/16 10:34:03;;;;;;;1.80;0.70;;;27.90;50.70;;;;;;5033236;28;20512;-68
2021/07/16 10:36:44;;;;;;;1.77;0.70;;;27.80;51.30;;;;;;5043270;28;20453;-68
2021/07/16 10:39:20;;;;;;;1.70;0.90;;;27.70;52.00;;;;;;5047013;28;20425;-68
2021/07/16 10:41:47;;;;;;;1.70;0.80;;;27.70;52.70;;;;;;5050644;28;20444;-68
2021/07/16 10:44:36;;;;;;;2.30;0.73;;;27.80;53.70;;;;;;5032392;28;20434;-68
2021/07/16 10:47:35;;;;;;;1.80;0.80;;;27.80;51.40;;;;;;5032244;28;20448;-68
2021/07/16 10:50:05;;;;;;;1.80;0.73;;;27.50;50.80;;;;;;5032604;28;20438;-68
2021/07/16 10:52:52;;;;;;;2.30;1.20;;;27.40;53.40;;;;;;5033467;28;20971;-68
2021/07/16 10:55:40;;;;;;;2.00;0.70;;;27.40;54.80;;;;;;5032657;28;20524;-68
2021/07/16 10:58:18;;;;;;;1.50;0.70;;;27.50;53.20;;;;;;5039994;28;20440;-68
2021/07/16 11:00:51;;;;;;;1.80;0.60;;;27.70;53.80;;;;;;5052586;28;20441;-68
2021/07/16 11:03:20;;;;;;;5.23;1.10;;;27.80;52.60;;;;;;5030190;28;20437;-68
2021/07/16 11:06:03;;;;;;;2.77;0.80;;;27.70;53.90;;;;;;5030087;28;20948;-71
2021/07/16 11:09:01;;;;;;;2.80;0.97;;;27.60;51.00;;;;;;5044764;28;20506;-69
2021/07/16 11:11:38;;;;;;;1.73;0.83;;;27.50;51.70;;;;;;5040436;28;20445;-68
2021/07/16 11:14:07;;;;;;;1.70;0.80;;;27.50;52.80;;;;;;5032976;28;20433;-68
2021/07/16 11:16:44;;;;;;;1.70;0.90;;;27.30;50.80;;;;;;5031796;28;20439;-69
2021/07/16 11:19:23;;;;;;;1.60;0.60;;;26.80;50.70;;;;;;5045425;28;20555;-68
2021/07/16 11:22:26;;;;;;;2.90;0.70;;;26.70;51.70;;;;;;5047087;28;20429;-69
2021/07/16 11:24:57;;;;;;;1.70;0.63;;;26.40;52.40;;;;;;5045772;28;20980;-68
2021/07/16 11:27:28;;;;;;;1.80;0.80;;;26.30;51.70;;;;;;5046723;28;20512;-68
2021/07/16 11:29:56;;;;;;;2.10;0.70;;;26.10;53.20;;;;;;5038081;28;20469;-69
2021/07/16 11:32:25;;;;;;;1.60;0.70;;;25.90;51.30;;;;;;5032931;28;20920;-68
2021/07/16 11:34:56;;;;;;;2.33;0.90;;;25.60;52.10;;;;;;5031973;28;20532;-69
2021/07/16 11:37:29;;;;;;;1.90;0.70;;;25.50;53.90;;;;;;5031573;28;20518;-68
2021/07/16 11:40:02;;;;;;;1.90;0.77;;;25.40;53.30;;;;;;5028960;28;20441;-69
2021/07/16 11:42:30;;;;;;;1.63;0.70;;;25.30;55.80;;;;;;5035413;28;20964;-69
2021/07/16 11:44:59;;;;;;;1.60;0.60;;;25.30;54.80;;;;;;5034247;28;20440;-68
2021/07/16 11:47:31;;;;;;;1.67;0.70;;;25.20;55.40;;;;;;5035747;28;20934;-68
2021/07/16 11:50:02;;;;;;;2.80;0.80;;;25.30;57.50;;;;;;5044691;28;20527;-68
2021/07/16 11:52:33;;;;;;;1.57;0.70;;;25.30;58.70;;;;;;5044876;28;20940;-68
2021/07/16 11:55:07;;;;;;;2.23;0.80;;;25.50;57.80;;;;;;5040197;28;20924;-69
2021/07/16 11:57:36;;;;;;;2.13;0.80;;;25.60;55.50;;;;;;5034462;28;20528;-68
2021/07/16 12:00:09;;;;;;;1.70;0.70;;;25.60;53.80;;;;;;5039559;28;20797;-68
2021/07/16 12:02:36;;;;;;;2.00;0.70;;;25.50;54.20;;;;;;5035045;28;20527;-68
2021/07/16 12:05:06;;;;;;;1.90;0.70;;;25.60;54.10;;;;;;5038310;28;20480;-68
2021/07/16 12:07:38;;;;;;;1.63;0.70;;;25.70;56.30;;;;;;5035849;28;20441;-68
2021/07/16 12:10:16;;;;;;;1.63;0.73;;;25.80;55.20;;;;;;5039011;28;20438;-67
2021/07/16 12:12:45;;;;;;;3.07;1.37;;;25.90;53.40;;;;;;5037934;28;20437;-67
2021/07/16 12:15:20;;;;;;;2.00;0.90;;;25.80;53.20;;;;;;5039147;28;20507;-68
2021/07/16 12:17:58;;;;;;;2.00;1.10;;;25.90;53.20;;;;;;5034310;28;20476;-68
2021/07/16 12:20:30;;;;;;;1.60;0.70;;;26.00;54.00;;;;;;5039969;28;20436;-68
2021/07/16 12:22:59;;;;;;;1.80;0.70;;;26.20;54.90;;;;;;5034426;28;20467;-67
2021/07/16 12:25:27;;;;;;;1.63;0.70;;;26.30;52.80;;;;;;5038817;28;20491;-69
2021/07/16 12:28:10;;;;;;;1.80;0.90;;;26.40;54.60;;;;;;5036326;28;20433;-68
2021/07/16 12:30:39;;;;;;;4.10;1.20;;;26.40;53.60;;;;;;5034366;28;20442;-68
2021/07/16 12:33:08;;;;;;;2.03;0.90;;;26.40;54.00;;;;;;5035415;28;20964;-68
2021/07/16 12:35:39;;;;;;;2.53;0.80;;;26.40;52.90;;;;;;5034476;28;20452;-68
2021/07/16 12:38:09;;;;;;;1.53;0.63;;;26.30;51.60;;;;;;5034309;28;20445;-68
2021/07/16 12:40:37;;;;;;;1.60;0.70;;;26.20;53.50;;;;;;5035452;28;20955;-67
2021/07/16 12:43:18;;;;;;;1.60;0.70;;;26.10;54.50;;;;;;5034274;28;20449;-68
2021/07/16 12:45:48;;;;;;;1.80;1.00;;;26.10;54.80;;;;;;5035425;28;20474;-68
2021/07/16 12:48:26;;;;;;;1.73;0.73;;;26.20;55.30;;;;;;5033779;28;20489;-68
2021/07/16 12:50:54;;;;;;;2.90;0.70;;;26.40;57.00;;;;;;5035405;28;20504;-67
2021/07/16 12:53:33;;;;;;;3.03;0.80;;;26.50;55.50;;;;;;5034309;28;20438;-68
2021/07/16 12:56:18;;;;;;;1.77;1.00;;;26.50;55.60;;;;;;5034012;28;20537;-68
2021/07/16 12:58:45;;;;;;;2.43;0.63;;;26.70;54.50;;;;;;5033819;28;20531;-68
2021/07/16 13:01:12;;;;;;;1.77;0.70;;;26.80;53.10;;;;;;5033800;28;20529;-69
2021/07/16 13:03:43;;;;;;;2.90;0.97;;;26.70;52.50;;;;;;5035432;28;20506;-67
2021/07/16 13:06:23;;;;;;;1.50;0.60;;;26.60;53.10;;;;;;5038046;28;20500;-68